sensor_id;sensor_type;location;lat;lon;timestamp;temperature;humidity
21928;DHT22;11128;51.096;17.190;2023-07-28T00:04:20;18.30;99.90
21928;DHT22;11128;51.096;17.190;2023-07-28T00:09:22;18.30;99.90
21928;DHT22;11128;51.096;17.190;2023-07-28T00:14:27;18.30;99.90
21928;DHT22;11128;51.096;17.190;2023-07-28T00:19:29;18.30;99.90
21928;DHT22;11128;51.096;17.190;2023-07-28T00:24:31;18.50;99.90
21928;DHT22;11128;51.096;17.190;2023-07-28T00:29:32;18.30;99.90
21928;DHT22;11128;51.096;17.190;2023-07-28T00:34:33;18.30;99.90
21928;DHT22;11128;51.096;17.190;2023-07-28T00:39:35;18.30;99.90
21928;DHT22;11128;51.096;17.190;2023-07-28T00:44:36;18.30;99.90
21928;DHT22;11128;51.096;17.190;2023-07-28T00:49:39;18.30;99.90
21928;DHT22;11128;51.096;17.190;2023-07-28T00:54:41;18.30;99.90
21928;DHT22;11128;51.096;17.190;2023-07-28T00:59:42;18.30;99.90
21928;DHT22;11128;51.096;17.190;2023-07-28T01:04:43;18.30;99.90
21928;DHT22;11128;51.096;17.190;2023-07-28T01:10:13;18.20;99.90
21928;DHT22;11128;51.096;17.190;2023-07-28T01:15:15;18.20;1.00
21928;DHT22;11128;51.096;17.190;2023-07-28T01:20:17;18.10;1.00
21928;DHT22;11128;51.096;17.190;2023-07-28T01:30:31;18.10;1.00
21928;DHT22;11128;51.096;17.190;2023-07-28T01:35:33;18.10;1.00
21928;DHT22;11128;51.096;17.190;2023-07-28T01:40:35;18.10;1.00
21928;DHT22;11128;51.096;17.190;2023-07-28T01:45:36;18.10;1.00
21928;DHT22;11128;51.096;17.190;2023-07-28T01:50:38;18.10;1.00
21928;DHT22;11128;51.096;17.190;2023-07-28T01:55:39;18.10;1.00
21928;DHT22;11128;51.096;17.190;2023-07-28T02:00:41;18.00;1.00
21928;DHT22;11128;51.096;17.190;2023-07-28T02:05:42;18.00;1.00
21928;DHT22;11128;51.096;17.190;2023-07-28T02:10:45;18.00;1.00
21928;DHT22;11128;51.096;17.190;2023-07-28T02:15:47;18.00;1.00
21928;DHT22;11128;51.096;17.190;2023-07-28T02:20:48;18.10;1.00
21928;DHT22;11128;51.096;17.190;2023-07-28T02:25:50;18.10;1.00
21928;DHT22;11128;51.096;17.190;2023-07-28T02:30:51;18.10;1.00
21928;DHT22;11128;51.096;17.190;2023-07-28T02:35:53;18.20;1.00
21928;DHT22;11128;51.096;17.190;2023-07-28T02:40:54;18.10;1.00
21928;DHT22;11128;51.096;17.190;2023-07-28T02:45:57;18.10;1.00
21928;DHT22;11128;51.096;17.190;2023-07-28T02:50:58;18.10;1.00
21928;DHT22;11128;51.096;17.190;2023-07-28T02:56:00;18.20;1.00
21928;DHT22;11128;51.096;17.190;2023-07-28T03:01:02;18.30;1.00
21928;DHT22;11128;51.096;17.190;2023-07-28T03:06:05;18.40;1.00
21928;DHT22;11128;51.096;17.190;2023-07-28T03:11:06;18.30;1.00
21928;DHT22;11128;51.096;17.190;2023-07-28T03:16:08;18.40;1.00
21928;DHT22;11128;51.096;17.190;2023-07-28T03:21:10;18.40;1.00
21928;DHT22;11128;51.096;17.190;2023-07-28T03:26:11;18.40;1.00
21928;DHT22;11128;51.096;17.190;2023-07-28T03:31:12;18.40;1.00
21928;DHT22;11128;51.096;17.190;2023-07-28T03:36:14;18.40;1.00
21928;DHT22;11128;51.096;17.190;2023-07-28T03:41:15;18.40;1.00
21928;DHT22;11128;51.096;17.190;2023-07-28T03:46:17;18.40;1.00
21928;DHT22;11128;51.096;17.190;2023-07-28T03:51:18;18.40;1.00
21928;DHT22;11128;51.096;17.190;2023-07-28T03:56:20;18.30;1.00
21928;DHT22;11128;51.096;17.190;2023-07-28T04:01:22;18.40;1.00
21928;DHT22;11128;51.096;17.190;2023-07-28T04:06:43;18.30;99.90
21928;DHT22;11128;51.096;17.190;2023-07-28T04:11:45;18.20;99.90
21928;DHT22;11128;51.096;17.190;2023-07-28T04:16:47;18.20;1.00
21928;DHT22;11128;51.096;17.190;2023-07-28T04:21:48;18.20;1.00
21928;DHT22;11128;51.096;17.190;2023-07-28T04:26:49;18.10;1.00
21928;DHT22;11128;51.096;17.190;2023-07-28T04:31:51;18.10;1.00
21928;DHT22;11128;51.096;17.190;2023-07-28T04:36:53;18.00;1.00
21928;DHT22;11128;51.096;17.190;2023-07-28T04:41:54;18.10;1.00
21928;DHT22;11128;51.096;17.190;2023-07-28T04:46:55;18.20;1.00
21928;DHT22;11128;51.096;17.190;2023-07-28T04:51:58;18.20;1.00
21928;DHT22;11128;51.096;17.190;2023-07-28T04:56:59;18.20;1.00
21928;DHT22;11128;51.096;17.190;2023-07-28T05:02:00;18.30;99.90
21928;DHT22;11128;51.096;17.190;2023-07-28T05:07:03;18.30;1.00
21928;DHT22;11128;51.096;17.190;2023-07-28T05:12:05;18.30;1.00
21928;DHT22;11128;51.096;17.190;2023-07-28T05:17:06;18.30;1.00
21928;DHT22;11128;51.096;17.190;2023-07-28T05:22:07;18.40;1.00
21928;DHT22;11128;51.096;17.190;2023-07-28T05:27:09;18.50;99.90
21928;DHT22;11128;51.096;17.190;2023-07-28T05:32:10;18.50;1.00
21928;DHT22;11128;51.096;17.190;2023-07-28T05:37:11;18.50;1.00
21928;DHT22;11128;51.096;17.190;2023-07-28T05:42:13;18.40;1.00
21928;DHT22;11128;51.096;17.190;2023-07-28T05:47:15;18.40;1.00
21928;DHT22;11128;51.096;17.190;2023-07-28T05:52:16;18.40;99.90
21928;DHT22;11128;51.096;17.190;2023-07-28T05:57:17;18.40;40.90
21928;DHT22;11128;51.096;17.190;2023-07-28T06:02:19;18.40;1.00
21928;DHT22;11128;51.096;17.190;2023-07-28T06:07:21;18.50;78.40
21928;DHT22;11128;51.096;17.190;2023-07-28T06:12:22;18.50;1.00
21928;DHT22;11128;51.096;17.190;2023-07-28T06:17:24;18.60;1.00
21928;DHT22;11128;51.096;17.190;2023-07-28T06:22:28;18.60;1.00
21928;DHT22;11128;51.096;17.190;2023-07-28T06:27:29;18.60;1.00
21928;DHT22;11128;51.096;17.190;2023-07-28T06:32:31;18.60;99.90
21928;DHT22;11128;51.096;17.190;2023-07-28T06:37:33;18.70;1.00
21928;DHT22;11128;51.096;17.190;2023-07-28T06:42:35;18.70;14.10
21928;DHT22;11128;51.096;17.190;2023-07-28T06:47:36;18.80;1.00
21928;DHT22;11128;51.096;17.190;2023-07-28T06:52:38;18.80;1.00
21928;DHT22;11128;51.096;17.190;2023-07-28T06:57:40;18.90;99.90
21928;DHT22;11128;51.096;17.190;2023-07-28T07:02:41;18.90;15.70
21928;DHT22;11128;51.096;17.190;2023-07-28T07:07:42;19.00;1.00
21928;DHT22;11128;51.096;17.190;2023-07-28T07:12:48;19.10;1.00
21928;DHT22;11128;51.096;17.190;2023-07-28T07:17:55;19.20;1.00
21928;DHT22;11128;51.096;17.190;2023-07-28T07:22:59;19.30;99.90
21928;DHT22;11128;51.096;17.190;2023-07-28T07:28:09;19.30;1.00
21928;DHT22;11128;51.096;17.190;2023-07-28T07:33:23;19.30;1.00
21928;DHT22;11128;51.096;17.190;2023-07-28T07:38:30;19.40;99.90
21928;DHT22;11128;51.096;17.190;2023-07-28T07:43:53;19.50;42.60
21928;DHT22;11128;51.096;17.190;2023-07-28T07:49:06;19.60;1.00
21928;DHT22;11128;51.096;17.190;2023-07-28T07:54:15;19.70;99.90
21928;DHT22;11128;51.096;17.190;2023-07-28T07:59:26;19.60;99.90
21928;DHT22;11128;51.096;17.190;2023-07-28T08:04:37;19.70;99.90
21928;DHT22;11128;51.096;17.190;2023-07-28T08:09:46;17.80;99.90
21928;DHT22;11128;51.096;17.190;2023-07-28T08:14:55;19.80;1.00
21928;DHT22;11128;51.096;17.190;2023-07-28T08:20:08;19.90;1.00
21928;DHT22;11128;51.096;17.190;2023-07-28T08:25:11;20.00;1.00
21928;DHT22;11128;51.096;17.190;2023-07-28T08:30:13;20.10;1.00
21928;DHT22;11128;51.096;17.190;2023-07-28T08:35:16;20.10;99.90
21928;DHT22;11128;51.096;17.190;2023-07-28T08:40:17;20.20;98.20
21928;DHT22;11128;51.096;17.190;2023-07-28T08:45:21;20.10;46.70
21928;DHT22;11128;51.096;17.190;2023-07-28T08:50:24;20.20;1.00
21928;DHT22;11128;51.096;17.190;2023-07-28T08:55:26;20.20;1.00
21928;DHT22;11128;51.096;17.190;2023-07-28T09:00:27;20.20;99.90
21928;DHT22;11128;51.096;17.190;2023-07-28T09:05:33;20.40;1.00
21928;DHT22;11128;51.096;17.190;2023-07-28T09:10:55;20.50;1.00
21928;DHT22;11128;51.096;17.190;2023-07-28T09:15:56;20.50;99.90
21928;DHT22;11128;51.096;17.190;2023-07-28T09:20:58;20.50;61.80
21928;DHT22;11128;51.096;17.190;2023-07-28T09:26:00;20.50;69.40
21928;DHT22;11128;51.096;17.190;2023-07-28T09:31:06;20.70;99.90
21928;DHT22;11128;51.096;17.190;2023-07-28T09:36:13;20.90;99.90
21928;DHT22;11128;51.096;17.190;2023-07-28T09:41:24;21.30;99.90
21928;DHT22;11128;51.096;17.190;2023-07-28T09:46:34;21.80;1.00
21928;DHT22;11128;51.096;17.190;2023-07-28T09:51:41;22.00;1.00
21928;DHT22;11128;51.096;17.190;2023-07-28T09:56:57;22.30;1.00
21928;DHT22;11128;51.096;17.190;2023-07-28T10:02:04;22.90;99.90
21928;DHT22;11128;51.096;17.190;2023-07-28T10:07:18;23.30;1.00
21928;DHT22;11128;51.096;17.190;2023-07-28T10:12:30;23.40;1.00
21928;DHT22;11128;51.096;17.190;2023-07-28T10:17:44;23.30;1.00
21928;DHT22;11128;51.096;17.190;2023-07-28T10:23:14;23.40;1.00
21928;DHT22;11128;51.096;17.190;2023-07-28T10:28:29;23.60;1.00
21928;DHT22;11128;51.096;17.190;2023-07-28T10:33:43;23.70;1.00
21928;DHT22;11128;51.096;17.190;2023-07-28T10:39:13;23.80;1.00
21928;DHT22;11128;51.096;17.190;2023-07-28T10:44:19;24.40;99.90
21928;DHT22;11128;51.096;17.190;2023-07-28T10:49:31;24.40;99.90
21928;DHT22;11128;51.096;17.190;2023-07-28T10:54:38;24.30;99.90
21928;DHT22;11128;51.096;17.190;2023-07-28T10:59:44;24.20;99.90
21928;DHT22;11128;51.096;17.190;2023-07-28T11:04:55;24.40;99.90
21928;DHT22;11128;51.096;17.190;2023-07-28T11:10:09;24.70;99.90
21928;DHT22;11128;51.096;17.190;2023-07-28T11:15:18;24.70;99.90
21928;DHT22;11128;51.096;17.190;2023-07-28T11:20:26;24.60;99.90
21928;DHT22;11128;51.096;17.190;2023-07-28T11:25:30;24.60;99.90
21928;DHT22;11128;51.096;17.190;2023-07-28T11:30:32;24.60;99.90
21928;DHT22;11128;51.096;17.190;2023-07-28T11:35:37;24.80;61.50
21928;DHT22;11128;51.096;17.190;2023-07-28T11:40:41;25.00;19.80
21928;DHT22;11128;51.096;17.190;2023-07-28T11:45:45;25.30;1.00
21928;DHT22;11128;51.096;17.190;2023-07-28T11:50:46;25.40;1.00
21928;DHT22;11128;51.096;17.190;2023-07-28T11:55:48;25.50;1.00
21928;DHT22;11128;51.096;17.190;2023-07-28T12:00:49;25.50;1.00
21928;DHT22;11128;51.096;17.190;2023-07-28T12:06:04;25.60;1.00
21928;DHT22;11128;51.096;17.190;2023-07-28T12:11:13;25.90;1.00
21928;DHT22;11128;51.096;17.190;2023-07-28T12:16:40;26.20;1.00
21928;DHT22;11128;51.096;17.190;2023-07-28T12:21:42;26.00;1.00
21928;DHT22;11128;51.096;17.190;2023-07-28T12:26:46;26.20;1.00
21928;DHT22;11128;51.096;17.190;2023-07-28T12:31:49;26.40;1.00
21928;DHT22;11128;51.096;17.190;2023-07-28T12:36:51;26.40;1.00
21928;DHT22;11128;51.096;17.190;2023-07-28T12:41:52;26.30;1.00
21928;DHT22;11128;51.096;17.190;2023-07-28T12:46:54;26.30;1.00
21928;DHT22;11128;51.096;17.190;2023-07-28T12:51:56;26.40;1.00
21928;DHT22;11128;51.096;17.190;2023-07-28T12:56:58;26.30;1.00
21928;DHT22;11128;51.096;17.190;2023-07-28T13:02:00;26.10;1.00
21928;DHT22;11128;51.096;17.190;2023-07-28T13:07:02;26.00;1.00
21928;DHT22;11128;51.096;17.190;2023-07-28T13:12:03;26.00;1.00
21928;DHT22;11128;51.096;17.190;2023-07-28T13:17:05;26.20;1.00
21928;DHT22;11128;51.096;17.190;2023-07-28T13:22:06;26.60;1.00
21928;DHT22;11128;51.096;17.190;2023-07-28T13:27:09;26.80;1.00
21928;DHT22;11128;51.096;17.190;2023-07-28T13:32:24;27.10;1.00
21928;DHT22;11128;51.096;17.190;2023-07-28T13:37:25;27.10;1.00
21928;DHT22;11128;51.096;17.190;2023-07-28T13:42:27;27.20;1.00
21928;DHT22;11128;51.096;17.190;2023-07-28T13:47:29;27.20;1.00
21928;DHT22;11128;51.096;17.190;2023-07-28T13:52:31;27.30;1.00
21928;DHT22;11128;51.096;17.190;2023-07-28T13:57:32;27.30;1.00
21928;DHT22;11128;51.096;17.190;2023-07-28T14:02:38;27.40;1.00
21928;DHT22;11128;51.096;17.190;2023-07-28T14:07:40;27.30;1.00
21928;DHT22;11128;51.096;17.190;2023-07-28T14:12:42;27.30;1.00
21928;DHT22;11128;51.096;17.190;2023-07-28T14:17:46;27.50;1.00
21928;DHT22;11128;51.096;17.190;2023-07-28T14:22:48;27.70;1.00
21928;DHT22;11128;51.096;17.190;2023-07-28T14:27:49;27.70;1.00
21928;DHT22;11128;51.096;17.190;2023-07-28T14:32:54;27.60;1.00
21928;DHT22;11128;51.096;17.190;2023-07-28T14:37:55;27.60;1.00
21928;DHT22;11128;51.096;17.190;2023-07-28T14:42:59;27.60;1.00
21928;DHT22;11128;51.096;17.190;2023-07-28T14:48:02;27.50;1.00
21928;DHT22;11128;51.096;17.190;2023-07-28T14:58:34;27.40;1.00
21928;DHT22;11128;51.096;17.190;2023-07-28T15:03:36;28.10;1.00
21928;DHT22;11128;51.096;17.190;2023-07-28T15:08:38;27.30;1.00
21928;DHT22;11128;51.096;17.190;2023-07-28T15:13:39;27.20;1.00
21928;DHT22;11128;51.096;17.190;2023-07-28T15:18:40;27.30;1.00
21928;DHT22;11128;51.096;17.190;2023-07-28T15:23:43;27.20;1.00
21928;DHT22;11128;51.096;17.190;2023-07-28T15:28:44;27.10;1.00
21928;DHT22;11128;51.096;17.190;2023-07-28T15:33:45;27.00;1.00
21928;DHT22;11128;51.096;17.190;2023-07-28T15:38:47;26.90;1.00
21928;DHT22;11128;51.096;17.190;2023-07-28T15:43:48;26.90;1.00
21928;DHT22;11128;51.096;17.190;2023-07-28T15:48:53;26.80;1.00
21928;DHT22;11128;51.096;17.190;2023-07-28T15:53:54;26.80;1.00
21928;DHT22;11128;51.096;17.190;2023-07-28T15:58:56;26.90;1.00
21928;DHT22;11128;51.096;17.190;2023-07-28T16:03:59;26.80;1.00
21928;DHT22;11128;51.096;17.190;2023-07-28T16:09:01;26.80;1.00
21928;DHT22;11128;51.096;17.190;2023-07-28T16:14:04;26.70;1.00
21928;DHT22;11128;51.096;17.190;2023-07-28T16:19:08;26.60;1.00
21928;DHT22;11128;51.096;17.190;2023-07-28T16:24:09;26.60;1.00
21928;DHT22;11128;51.096;17.190;2023-07-28T16:29:12;26.50;1.00
21928;DHT22;11128;51.096;17.190;2023-07-28T16:34:22;26.40;1.00
21928;DHT22;11128;51.096;17.190;2023-07-28T16:39:23;26.30;1.00
21928;DHT22;11128;51.096;17.190;2023-07-28T16:44:24;26.20;1.00
21928;DHT22;11128;51.096;17.190;2023-07-28T16:49:28;26.20;1.00
21928;DHT22;11128;51.096;17.190;2023-07-28T16:54:30;26.10;1.00
21928;DHT22;11128;51.096;17.190;2023-07-28T16:59:39;26.00;1.00
21928;DHT22;11128;51.096;17.190;2023-07-28T17:04:41;26.00;1.00
21928;DHT22;11128;51.096;17.190;2023-07-28T17:09:44;26.00;1.00
21928;DHT22;11128;51.096;17.190;2023-07-28T17:14:48;26.00;1.00
21928;DHT22;11128;51.096;17.190;2023-07-28T17:19:50;25.80;1.00
21928;DHT22;11128;51.096;17.190;2023-07-28T17:24:51;26.00;1.00
21928;DHT22;11128;51.096;17.190;2023-07-28T17:29:56;25.70;1.00
21928;DHT22;11128;51.096;17.190;2023-07-28T17:35:01;24.60;1.00
21928;DHT22;11128;51.096;17.190;2023-07-28T17:40:03;25.80;1.00
21928;DHT22;11128;51.096;17.190;2023-07-28T17:45:05;25.60;1.00
21928;DHT22;11128;51.096;17.190;2023-07-28T17:50:09;25.40;1.00
21928;DHT22;11128;51.096;17.190;2023-07-28T17:55:10;25.70;1.00
21928;DHT22;11128;51.096;17.190;2023-07-28T18:00:12;24.80;1.00
21928;DHT22;11128;51.096;17.190;2023-07-28T18:05:14;24.50;1.00
21928;DHT22;11128;51.096;17.190;2023-07-28T18:10:15;24.40;1.00
21928;DHT22;11128;51.096;17.190;2023-07-28T18:15:20;24.30;1.00
21928;DHT22;11128;51.096;17.190;2023-07-28T18:20:21;24.20;1.00
21928;DHT22;11128;51.096;17.190;2023-07-28T18:25:23;24.10;1.00
21928;DHT22;11128;51.096;17.190;2023-07-28T18:30:24;24.00;1.00
21928;DHT22;11128;51.096;17.190;2023-07-28T18:35:26;23.90;1.00
21928;DHT22;11128;51.096;17.190;2023-07-28T18:40:27;23.80;1.00
21928;DHT22;11128;51.096;17.190;2023-07-28T18:45:29;23.70;9.00
21928;DHT22;11128;51.096;17.190;2023-07-28T18:50:30;23.70;8.70
21928;DHT22;11128;51.096;17.190;2023-07-28T18:55:32;23.60;22.80
21928;DHT22;11128;51.096;17.190;2023-07-28T19:00:33;23.60;24.30
21928;DHT22;11128;51.096;17.190;2023-07-28T19:05:35;23.50;30.30
21928;DHT22;11128;51.096;17.190;2023-07-28T19:10:36;23.50;33.50
21928;DHT22;11128;51.096;17.190;2023-07-28T19:15:38;23.40;53.90
21928;DHT22;11128;51.096;17.190;2023-07-28T19:20:39;23.30;59.20
21928;DHT22;11128;51.096;17.190;2023-07-28T19:25:41;23.20;68.30
21928;DHT22;11128;51.096;17.190;2023-07-28T19:30:42;23.10;89.20
21928;DHT22;11128;51.096;17.190;2023-07-28T19:35:44;23.00;99.90
21928;DHT22;11128;51.096;17.190;2023-07-28T19:40:47;22.90;99.90
21928;DHT22;11128;51.096;17.190;2023-07-28T19:45:48;22.80;99.90
21928;DHT22;11128;51.096;17.190;2023-07-28T19:50:50;22.70;99.90
21928;DHT22;11128;51.096;17.190;2023-07-28T19:55:52;22.70;99.90
21928;DHT22;11128;51.096;17.190;2023-07-28T20:00:54;22.60;99.90
21928;DHT22;11128;51.096;17.190;2023-07-28T20:05:55;22.50;99.90
21928;DHT22;11128;51.096;17.190;2023-07-28T20:10:57;22.40;99.90
21928;DHT22;11128;51.096;17.190;2023-07-28T20:15:59;22.20;99.90
21928;DHT22;11128;51.096;17.190;2023-07-28T20:21:00;22.20;99.90
21928;DHT22;11128;51.096;17.190;2023-07-28T20:26:03;22.00;99.90
21928;DHT22;11128;51.096;17.190;2023-07-28T20:31:07;22.00;99.90
21928;DHT22;11128;51.096;17.190;2023-07-28T20:36:08;21.90;99.90
21928;DHT22;11128;51.096;17.190;2023-07-28T20:41:10;21.90;99.90
21928;DHT22;11128;51.096;17.190;2023-07-28T20:46:11;21.90;99.90
21928;DHT22;11128;51.096;17.190;2023-07-28T20:51:13;21.70;99.90
21928;DHT22;11128;51.096;17.190;2023-07-28T20:56:15;21.60;99.90
21928;DHT22;11128;51.096;17.190;2023-07-28T21:01:25;21.60;99.90
21928;DHT22;11128;51.096;17.190;2023-07-28T21:06:26;21.40;99.90
21928;DHT22;11128;51.096;17.190;2023-07-28T21:11:28;21.30;99.90
21928;DHT22;11128;51.096;17.190;2023-07-28T21:16:29;21.30;99.90
21928;DHT22;11128;51.096;17.190;2023-07-28T21:21:31;21.20;99.90
21928;DHT22;11128;51.096;17.190;2023-07-28T21:26:32;21.20;99.90
21928;DHT22;11128;51.096;17.190;2023-07-28T21:31:33;21.20;99.90
21928;DHT22;11128;51.096;17.190;2023-07-28T21:36:35;21.10;99.90
21928;DHT22;11128;51.096;17.190;2023-07-28T21:41:37;21.00;99.90
21928;DHT22;11128;51.096;17.190;2023-07-28T21:46:38;21.00;99.90
21928;DHT22;11128;51.096;17.190;2023-07-28T21:51:40;20.80;99.90
21928;DHT22;11128;51.096;17.190;2023-07-28T21:56:42;20.80;99.90
21928;DHT22;11128;51.096;17.190;2023-07-28T22:01:43;20.70;99.90
21928;DHT22;11128;51.096;17.190;2023-07-28T22:06:44;20.80;99.90
21928;DHT22;11128;51.096;17.190;2023-07-28T22:11:46;20.80;99.90
21928;DHT22;11128;51.096;17.190;2023-07-28T22:16:47;20.70;99.90
21928;DHT22;11128;51.096;17.190;2023-07-28T22:21:49;20.60;1.00
21928;DHT22;11128;51.096;17.190;2023-07-28T22:26:50;20.50;1.00
21928;DHT22;11128;51.096;17.190;2023-07-28T22:31:51;20.50;99.90
21928;DHT22;11128;51.096;17.190;2023-07-28T22:36:53;20.60;1.00
21928;DHT22;11128;51.096;17.190;2023-07-28T22:41:55;20.60;99.90
21928;DHT22;11128;51.096;17.190;2023-07-28T22:46:56;20.60;1.00
21928;DHT22;11128;51.096;17.190;2023-07-28T22:51:58;20.60;1.00
21928;DHT22;11128;51.096;17.190;2023-07-28T22:56:59;20.40;1.00
21928;DHT22;11128;51.096;17.190;2023-07-28T23:02:02;20.40;1.00
21928;DHT22;11128;51.096;17.190;2023-07-28T23:07:04;20.40;1.00
21928;DHT22;11128;51.096;17.190;2023-07-28T23:12:05;20.40;1.00
21928;DHT22;11128;51.096;17.190;2023-07-28T23:17:07;20.30;1.00
21928;DHT22;11128;51.096;17.190;2023-07-28T23:22:08;20.30;1.00
21928;DHT22;11128;51.096;17.190;2023-07-28T23:27:10;20.30;1.00
21928;DHT22;11128;51.096;17.190;2023-07-28T23:32:11;20.30;1.00
21928;DHT22;11128;51.096;17.190;2023-07-28T23:37:14;20.30;1.00
21928;DHT22;11128;51.096;17.190;2023-07-28T23:42:16;20.30;1.00
21928;DHT22;11128;51.096;17.190;2023-07-28T23:47:17;20.40;1.00
21928;DHT22;11128;51.096;17.190;2023-07-28T23:52:19;20.30;1.00
21928;DHT22;11128;51.096;17.190;2023-07-28T23:57:20;20.30;1.00
